sensor_id;sensor_type;location;lat;lon;timestamp;temperature;humidity
64939;DHT22;51453;47.738;7.420;2022-09-13T00:00:34;13.80;99.90
64939;DHT22;51453;47.738;7.420;2022-09-13T00:03:00;13.80;99.90
64939;DHT22;51453;47.738;7.420;2022-09-13T00:05:26;13.80;99.90
64939;DHT22;51453;47.738;7.420;2022-09-13T00:07:52;13.70;99.90
64939;DHT22;51453;47.738;7.420;2022-09-13T00:10:17;13.70;99.90
64939;DHT22;51453;47.738;7.420;2022-09-13T00:12:43;13.70;99.90
64939;DHT22;51453;47.738;7.420;2022-09-13T00:15:09;13.60;99.90
64939;DHT22;51453;47.738;7.420;2022-09-13T00:17:35;13.60;99.90
64939;DHT22;51453;47.738;7.420;2022-09-13T00:20:02;13.60;99.90
64939;DHT22;51453;47.738;7.420;2022-09-13T00:22:28;13.60;99.90
64939;DHT22;51453;47.738;7.420;2022-09-13T00:24:53;13.60;99.90
64939;DHT22;51453;47.738;7.420;2022-09-13T00:27:19;13.60;99.90
64939;DHT22;51453;47.738;7.420;2022-09-13T00:29:45;13.60;99.90
64939;DHT22;51453;47.738;7.420;2022-09-13T00:32:11;13.50;99.90
64939;DHT22;51453;47.738;7.420;2022-09-13T00:34:37;13.50;99.90
64939;DHT22;51453;47.738;7.420;2022-09-13T00:37:03;13.50;99.90
64939;DHT22;51453;47.738;7.420;2022-09-13T00:39:29;13.50;99.90
64939;DHT22;51453;47.738;7.420;2022-09-13T00:41:55;13.50;99.90
64939;DHT22;51453;47.738;7.420;2022-09-13T00:44:48;13.50;99.90
64939;DHT22;51453;47.738;7.420;2022-09-13T00:47:19;13.50;99.90
64939;DHT22;51453;47.738;7.420;2022-09-13T00:49:46;13.50;99.90
64939;DHT22;51453;47.738;7.420;2022-09-13T00:52:16;13.40;99.90
64939;DHT22;51453;47.738;7.420;2022-09-13T00:54:50;13.40;99.90
64939;DHT22;51453;47.738;7.420;2022-09-13T00:57:17;13.40;99.90
64939;DHT22;51453;47.738;7.420;2022-09-13T00:59:55;13.40;99.90
64939;DHT22;51453;47.738;7.420;2022-09-13T01:02:23;13.40;99.90
64939;DHT22;51453;47.738;7.420;2022-09-13T01:04:49;13.50;99.90
64939;DHT22;51453;47.738;7.420;2022-09-13T01:07:15;13.50;99.90
64939;DHT22;51453;47.738;7.420;2022-09-13T01:09:43;13.40;99.90
64939;DHT22;51453;47.738;7.420;2022-09-13T01:14:50;13.40;99.90
64939;DHT22;51453;47.738;7.420;2022-09-13T01:17:16;13.30;99.90
64939;DHT22;51453;47.738;7.420;2022-09-13T01:19:42;13.30;99.90
64939;DHT22;51453;47.738;7.420;2022-09-13T01:30:24;13.20;99.90
64939;DHT22;51453;47.738;7.420;2022-09-13T01:44:01;13.20;99.90
64939;DHT22;51453;47.738;7.420;2022-09-13T01:46:38;13.20;99.90
64939;DHT22;51453;47.738;7.420;2022-09-13T01:49:30;13.10;99.90
64939;DHT22;51453;47.738;7.420;2022-09-13T01:51:59;13.20;99.90
64939;DHT22;51453;47.738;7.420;2022-09-13T01:54:31;13.10;99.90
64939;DHT22;51453;47.738;7.420;2022-09-13T02:00:08;13.00;99.90
64939;DHT22;51453;47.738;7.420;2022-09-13T02:03:00;13.00;99.90
64939;DHT22;51453;47.738;7.420;2022-09-13T02:05:39;13.00;99.90
64939;DHT22;51453;47.738;7.420;2022-09-13T02:08:41;13.00;99.90
64939;DHT22;51453;47.738;7.420;2022-09-13T02:11:15;13.00;99.90
64939;DHT22;51453;47.738;7.420;2022-09-13T02:14:14;13.20;99.90
64939;DHT22;51453;47.738;7.420;2022-09-13T02:16:53;13.20;99.90
64939;DHT22;51453;47.738;7.420;2022-09-13T02:19:34;13.40;99.90
64939;DHT22;51453;47.738;7.420;2022-09-13T02:22:02;13.60;99.90
64939;DHT22;51453;47.738;7.420;2022-09-13T02:24:32;13.70;99.90
64939;DHT22;51453;47.738;7.420;2022-09-13T02:27:07;13.80;99.90
64939;DHT22;51453;47.738;7.420;2022-09-13T02:29:36;13.90;99.90
64939;DHT22;51453;47.738;7.420;2022-09-13T02:34:42;14.10;99.90
64939;DHT22;51453;47.738;7.420;2022-09-13T02:37:10;14.20;99.90
64939;DHT22;51453;47.738;7.420;2022-09-13T02:39:43;14.20;99.90
64939;DHT22;51453;47.738;7.420;2022-09-13T02:42:24;14.20;99.90
64939;DHT22;51453;47.738;7.420;2022-09-13T02:44:53;14.20;99.90
64939;DHT22;51453;47.738;7.420;2022-09-13T02:52:47;14.40;99.90
64939;DHT22;51453;47.738;7.420;2022-09-13T02:58:27;14.70;99.90
64939;DHT22;51453;47.738;7.420;2022-09-13T03:00:56;14.70;99.90
64939;DHT22;51453;47.738;7.420;2022-09-13T03:03:23;14.80;99.90
64939;DHT22;51453;47.738;7.420;2022-09-13T03:05:49;14.90;99.90
64939;DHT22;51453;47.738;7.420;2022-09-13T03:08:16;14.90;99.90
64939;DHT22;51453;47.738;7.420;2022-09-13T03:27:59;15.00;99.90
64939;DHT22;51453;47.738;7.420;2022-09-13T03:30:27;14.90;99.90
64939;DHT22;51453;47.738;7.420;2022-09-13T03:33:17;14.90;99.90
64939;DHT22;51453;47.738;7.420;2022-09-13T03:41:16;14.80;99.90
64939;DHT22;51453;47.738;7.420;2022-09-13T03:43:53;14.80;99.90
64939;DHT22;51453;47.738;7.420;2022-09-13T03:46:27;14.70;99.90
64939;DHT22;51453;47.738;7.420;2022-09-13T03:49:06;14.70;99.90
64939;DHT22;51453;47.738;7.420;2022-09-13T03:51:33;14.60;99.90
64939;DHT22;51453;47.738;7.420;2022-09-13T03:54:03;14.60;99.90
64939;DHT22;51453;47.738;7.420;2022-09-13T03:56:29;14.60;99.90
64939;DHT22;51453;47.738;7.420;2022-09-13T03:58:55;14.60;99.90
64939;DHT22;51453;47.738;7.420;2022-09-13T04:01:22;14.50;99.90
64939;DHT22;51453;47.738;7.420;2022-09-13T04:03:49;14.50;99.90
64939;DHT22;51453;47.738;7.420;2022-09-13T04:06:15;14.50;99.90
64939;DHT22;51453;47.738;7.420;2022-09-13T04:08:40;14.50;99.90
64939;DHT22;51453;47.738;7.420;2022-09-13T04:11:06;14.40;99.90
64939;DHT22;51453;47.738;7.420;2022-09-13T04:13:34;14.40;99.90
64939;DHT22;51453;47.738;7.420;2022-09-13T04:16:01;14.30;99.90
64939;DHT22;51453;47.738;7.420;2022-09-13T04:18:28;14.30;99.90
64939;DHT22;51453;47.738;7.420;2022-09-13T04:20:54;14.30;99.90
64939;DHT22;51453;47.738;7.420;2022-09-13T04:23:21;14.20;99.90
64939;DHT22;51453;47.738;7.420;2022-09-13T04:25:47;14.20;99.90
64939;DHT22;51453;47.738;7.420;2022-09-13T04:28:13;14.10;99.90
64939;DHT22;51453;47.738;7.420;2022-09-13T04:30:38;14.10;99.90
64939;DHT22;51453;47.738;7.420;2022-09-13T04:33:04;14.00;99.90
64939;DHT22;51453;47.738;7.420;2022-09-13T04:35:29;14.00;99.90
64939;DHT22;51453;47.738;7.420;2022-09-13T04:37:55;14.00;99.90
64939;DHT22;51453;47.738;7.420;2022-09-13T04:40:24;14.00;99.90
64939;DHT22;51453;47.738;7.420;2022-09-13T04:42:49;14.10;99.90
64939;DHT22;51453;47.738;7.420;2022-09-13T04:45:15;14.20;99.90
64939;DHT22;51453;47.738;7.420;2022-09-13T04:47:41;14.20;99.90
64939;DHT22;51453;47.738;7.420;2022-09-13T04:50:07;14.20;99.90
64939;DHT22;51453;47.738;7.420;2022-09-13T04:52:34;14.30;99.90
64939;DHT22;51453;47.738;7.420;2022-09-13T04:55:00;14.30;99.90
64939;DHT22;51453;47.738;7.420;2022-09-13T04:57:27;14.30;99.90
64939;DHT22;51453;47.738;7.420;2022-09-13T04:59:53;14.40;99.90
64939;DHT22;51453;47.738;7.420;2022-09-13T05:02:19;14.50;99.90
64939;DHT22;51453;47.738;7.420;2022-09-13T05:04:44;14.50;99.90
64939;DHT22;51453;47.738;7.420;2022-09-13T05:07:10;14.50;99.90
64939;DHT22;51453;47.738;7.420;2022-09-13T05:09:36;14.50;99.90
64939;DHT22;51453;47.738;7.420;2022-09-13T05:12:02;14.50;99.90
64939;DHT22;51453;47.738;7.420;2022-09-13T05:14:28;14.50;99.90
64939;DHT22;51453;47.738;7.420;2022-09-13T05:16:53;14.60;99.90
64939;DHT22;51453;47.738;7.420;2022-09-13T05:19:19;14.60;99.90
64939;DHT22;51453;47.738;7.420;2022-09-13T05:21:45;14.70;99.90
64939;DHT22;51453;47.738;7.420;2022-09-13T05:24:11;14.70;99.90
64939;DHT22;51453;47.738;7.420;2022-09-13T05:26:36;14.70;99.90
64939;DHT22;51453;47.738;7.420;2022-09-13T05:29:03;14.70;99.90
64939;DHT22;51453;47.738;7.420;2022-09-13T05:31:35;14.80;99.90
64939;DHT22;51453;47.738;7.420;2022-09-13T05:34:04;14.90;99.90
64939;DHT22;51453;47.738;7.420;2022-09-13T05:36:31;14.90;99.90
64939;DHT22;51453;47.738;7.420;2022-09-13T05:38:58;15.00;99.90
64939;DHT22;51453;47.738;7.420;2022-09-13T05:41:23;15.00;99.90
64939;DHT22;51453;47.738;7.420;2022-09-13T05:43:49;15.10;99.90
64939;DHT22;51453;47.738;7.420;2022-09-13T05:46:19;15.10;99.90
64939;DHT22;51453;47.738;7.420;2022-09-13T05:48:46;15.20;99.90
64939;DHT22;51453;47.738;7.420;2022-09-13T05:51:20;15.20;99.90
64939;DHT22;51453;47.738;7.420;2022-09-13T05:53:48;15.30;99.90
64939;DHT22;51453;47.738;7.420;2022-09-13T05:56:17;15.30;99.90
64939;DHT22;51453;47.738;7.420;2022-09-13T05:58:45;15.40;99.90
64939;DHT22;51453;47.738;7.420;2022-09-13T06:01:13;15.40;99.90
64939;DHT22;51453;47.738;7.420;2022-09-13T06:03:40;15.50;99.90
64939;DHT22;51453;47.738;7.420;2022-09-13T06:06:06;15.60;99.90
64939;DHT22;51453;47.738;7.420;2022-09-13T06:08:33;15.60;99.90
64939;DHT22;51453;47.738;7.420;2022-09-13T06:11:02;15.80;99.90
64939;DHT22;51453;47.738;7.420;2022-09-13T06:13:28;15.90;99.90
64939;DHT22;51453;47.738;7.420;2022-09-13T06:15:56;15.90;99.90
64939;DHT22;51453;47.738;7.420;2022-09-13T06:18:23;16.00;99.90
64939;DHT22;51453;47.738;7.420;2022-09-13T06:20:49;16.10;99.90
64939;DHT22;51453;47.738;7.420;2022-09-13T06:23:15;16.20;99.90
64939;DHT22;51453;47.738;7.420;2022-09-13T06:25:42;16.30;99.90
64939;DHT22;51453;47.738;7.420;2022-09-13T06:28:09;16.40;99.90
64939;DHT22;51453;47.738;7.420;2022-09-13T06:30:35;16.40;99.90
64939;DHT22;51453;47.738;7.420;2022-09-13T06:33:01;16.50;99.90
64939;DHT22;51453;47.738;7.420;2022-09-13T06:35:26;16.60;99.90
64939;DHT22;51453;47.738;7.420;2022-09-13T06:37:56;16.70;99.90
64939;DHT22;51453;47.738;7.420;2022-09-13T06:40:23;16.80;99.90
64939;DHT22;51453;47.738;7.420;2022-09-13T06:42:49;16.90;99.90
64939;DHT22;51453;47.738;7.420;2022-09-13T06:45:15;17.00;99.90
64939;DHT22;51453;47.738;7.420;2022-09-13T06:47:41;17.10;99.90
64939;DHT22;51453;47.738;7.420;2022-09-13T06:50:07;17.20;99.90
64939;DHT22;51453;47.738;7.420;2022-09-13T06:52:34;17.40;99.90
64939;DHT22;51453;47.738;7.420;2022-09-13T06:54:59;17.40;99.90
64939;DHT22;51453;47.738;7.420;2022-09-13T06:57:25;17.50;99.90
64939;DHT22;51453;47.738;7.420;2022-09-13T06:59:54;17.70;99.90
64939;DHT22;51453;47.738;7.420;2022-09-13T07:02:20;17.80;99.90
64939;DHT22;51453;47.738;7.420;2022-09-13T07:04:45;17.90;99.90
64939;DHT22;51453;47.738;7.420;2022-09-13T07:07:11;18.00;99.90
64939;DHT22;51453;47.738;7.420;2022-09-13T07:09:37;18.00;99.90
64939;DHT22;51453;47.738;7.420;2022-09-13T07:12:04;18.10;99.90
64939;DHT22;51453;47.738;7.420;2022-09-13T07:14:31;18.30;99.90
64939;DHT22;51453;47.738;7.420;2022-09-13T07:16:56;18.50;99.90
64939;DHT22;51453;47.738;7.420;2022-09-13T07:19:24;18.80;99.90
64939;DHT22;51453;47.738;7.420;2022-09-13T07:21:55;19.00;99.90
64939;DHT22;51453;47.738;7.420;2022-09-13T07:24:21;19.10;99.90
64939;DHT22;51453;47.738;7.420;2022-09-13T07:26:47;19.30;99.90
64939;DHT22;51453;47.738;7.420;2022-09-13T07:29:16;19.30;99.90
64939;DHT22;51453;47.738;7.420;2022-09-13T07:31:45;19.20;99.90
64939;DHT22;51453;47.738;7.420;2022-09-13T07:34:14;19.10;99.90
64939;DHT22;51453;47.738;7.420;2022-09-13T07:36:40;19.00;99.90
64939;DHT22;51453;47.738;7.420;2022-09-13T07:39:06;18.90;99.90
64939;DHT22;51453;47.738;7.420;2022-09-13T07:41:32;18.90;99.90
64939;DHT22;51453;47.738;7.420;2022-09-13T07:43:59;18.90;99.90
64939;DHT22;51453;47.738;7.420;2022-09-13T07:46:30;19.00;99.90
64939;DHT22;51453;47.738;7.420;2022-09-13T07:48:57;19.20;99.90
64939;DHT22;51453;47.738;7.420;2022-09-13T07:51:29;19.40;99.90
64939;DHT22;51453;47.738;7.420;2022-09-13T07:53:58;19.50;99.90
64939;DHT22;51453;47.738;7.420;2022-09-13T07:56:26;19.60;99.90
64939;DHT22;51453;47.738;7.420;2022-09-13T07:58:52;19.70;99.90
64939;DHT22;51453;47.738;7.420;2022-09-13T08:01:20;19.70;99.90
64939;DHT22;51453;47.738;7.420;2022-09-13T08:03:54;19.80;99.90
64939;DHT22;51453;47.738;7.420;2022-09-13T08:06:21;19.90;99.90
64939;DHT22;51453;47.738;7.420;2022-09-13T08:08:47;20.00;99.90
64939;DHT22;51453;47.738;7.420;2022-09-13T08:11:24;20.10;99.90
64939;DHT22;51453;47.738;7.420;2022-09-13T08:13:52;20.30;99.90
64939;DHT22;51453;47.738;7.420;2022-09-13T08:16:20;20.50;99.90
64939;DHT22;51453;47.738;7.420;2022-09-13T08:18:48;20.70;99.90
64939;DHT22;51453;47.738;7.420;2022-09-13T08:21:14;21.00;99.90
64939;DHT22;51453;47.738;7.420;2022-09-13T08:23:41;21.20;99.90
64939;DHT22;51453;47.738;7.420;2022-09-13T08:26:08;21.30;99.90
64939;DHT22;51453;47.738;7.420;2022-09-13T08:28:35;21.30;99.90
64939;DHT22;51453;47.738;7.420;2022-09-13T08:31:09;21.50;99.90
64939;DHT22;51453;47.738;7.420;2022-09-13T08:33:36;21.50;99.90
64939;DHT22;51453;47.738;7.420;2022-09-13T08:36:02;21.50;99.90
64939;DHT22;51453;47.738;7.420;2022-09-13T08:38:29;21.60;99.90
64939;DHT22;51453;47.738;7.420;2022-09-13T08:40:58;21.70;99.90
64939;DHT22;51453;47.738;7.420;2022-09-13T08:43:49;21.80;99.90
64939;DHT22;51453;47.738;7.420;2022-09-13T08:46:45;21.90;99.90
64939;DHT22;51453;47.738;7.420;2022-09-13T08:49:25;22.00;99.90
64939;DHT22;51453;47.738;7.420;2022-09-13T08:52:19;22.00;99.90
64939;DHT22;51453;47.738;7.420;2022-09-13T08:54:49;22.10;99.90
64939;DHT22;51453;47.738;7.420;2022-09-13T08:57:37;22.20;99.90
64939;DHT22;51453;47.738;7.420;2022-09-13T09:00:32;22.30;99.90
64939;DHT22;51453;47.738;7.420;2022-09-13T09:03:27;22.40;99.90
64939;DHT22;51453;47.738;7.420;2022-09-13T09:05:55;22.50;99.90
64939;DHT22;51453;47.738;7.420;2022-09-13T09:08:31;22.50;99.90
64939;DHT22;51453;47.738;7.420;2022-09-13T09:11:06;22.50;99.90
64939;DHT22;51453;47.738;7.420;2022-09-13T09:13:47;22.60;99.90
64939;DHT22;51453;47.738;7.420;2022-09-13T09:19:19;22.90;99.90
64939;DHT22;51453;47.738;7.420;2022-09-13T09:21:48;23.00;99.90
64939;DHT22;51453;47.738;7.420;2022-09-13T09:24:23;23.00;99.90
64939;DHT22;51453;47.738;7.420;2022-09-13T09:26:51;23.10;99.90
64939;DHT22;51453;47.738;7.420;2022-09-13T09:29:19;23.30;99.90
64939;DHT22;51453;47.738;7.420;2022-09-13T09:35:23;23.40;99.90
64939;DHT22;51453;47.738;7.420;2022-09-13T09:40:33;23.20;99.90
64939;DHT22;51453;47.738;7.420;2022-09-13T09:42:59;23.30;99.90
64939;DHT22;51453;47.738;7.420;2022-09-13T09:45:31;23.30;99.90
64939;DHT22;51453;47.738;7.420;2022-09-13T09:48:00;23.40;99.90
64939;DHT22;51453;47.738;7.420;2022-09-13T09:50:33;23.60;99.90
64939;DHT22;51453;47.738;7.420;2022-09-13T09:53:27;23.70;99.90
64939;DHT22;51453;47.738;7.420;2022-09-13T09:58:52;23.90;99.90
64939;DHT22;51453;47.738;7.420;2022-09-13T10:01:33;24.00;99.90
64939;DHT22;51453;47.738;7.420;2022-09-13T10:06:36;24.00;99.90
64939;DHT22;51453;47.738;7.420;2022-09-13T10:14:35;24.40;99.90
64939;DHT22;51453;47.738;7.420;2022-09-13T10:17:27;24.50;99.90
64939;DHT22;51453;47.738;7.420;2022-09-13T10:22:37;24.60;99.90
64939;DHT22;51453;47.738;7.420;2022-09-13T10:25:25;24.60;99.90
64939;DHT22;51453;47.738;7.420;2022-09-13T10:27:57;24.80;99.90
64939;DHT22;51453;47.738;7.420;2022-09-13T10:30:44;25.10;99.90
64939;DHT22;51453;47.738;7.420;2022-09-13T10:33:38;25.30;99.90
64939;DHT22;51453;47.738;7.420;2022-09-13T10:36:31;25.70;99.90
64939;DHT22;51453;47.738;7.420;2022-09-13T10:39:02;25.80;99.90
64939;DHT22;51453;47.738;7.420;2022-09-13T10:41:31;25.90;99.90
64939;DHT22;51453;47.738;7.420;2022-09-13T10:44:00;25.80;99.90
64939;DHT22;51453;47.738;7.420;2022-09-13T10:46:29;25.90;99.90
64939;DHT22;51453;47.738;7.420;2022-09-13T10:48:56;26.00;99.90
64939;DHT22;51453;47.738;7.420;2022-09-13T10:54:06;25.80;99.90
64939;DHT22;51453;47.738;7.420;2022-09-13T10:56:33;25.70;99.90
64939;DHT22;51453;47.738;7.420;2022-09-13T11:15:29;26.60;99.90
64939;DHT22;51453;47.738;7.420;2022-09-13T11:32:29;27.10;99.90
64939;DHT22;51453;47.738;7.420;2022-09-13T11:57:20;27.70;99.90
64939;DHT22;51453;47.738;7.420;2022-09-13T12:00:05;27.70;99.90
64939;DHT22;51453;47.738;7.420;2022-09-13T12:02:41;27.80;99.90
64939;DHT22;51453;47.738;7.420;2022-09-13T12:05:19;27.80;99.90
64939;DHT22;51453;47.738;7.420;2022-09-13T12:13:45;27.80;99.90
64939;DHT22;51453;47.738;7.420;2022-09-13T12:16:17;27.70;99.90
64939;DHT22;51453;47.738;7.420;2022-09-13T12:18:52;27.60;99.90
64939;DHT22;51453;47.738;7.420;2022-09-13T12:21:21;27.60;99.90
64939;DHT22;51453;47.738;7.420;2022-09-13T12:26:30;27.50;99.90
64939;DHT22;51453;47.738;7.420;2022-09-13T12:29:12;27.50;99.90
64939;DHT22;51453;47.738;7.420;2022-09-13T12:31:39;27.50;99.90
64939;DHT22;51453;47.738;7.420;2022-09-13T12:34:08;27.50;99.90
64939;DHT22;51453;47.738;7.420;2022-09-13T12:36:50;27.40;99.90
64939;DHT22;51453;47.738;7.420;2022-09-13T12:42:18;27.30;99.90
64939;DHT22;51453;47.738;7.420;2022-09-13T12:48:08;27.20;99.90
64939;DHT22;51453;47.738;7.420;2022-09-13T13:01:52;27.30;99.90
64939;DHT22;51453;47.738;7.420;2022-09-13T13:04:22;27.20;99.90
64939;DHT22;51453;47.738;7.420;2022-09-13T13:07:05;27.30;99.90
64939;DHT22;51453;47.738;7.420;2022-09-13T13:09:39;27.30;99.90
64939;DHT22;51453;47.738;7.420;2022-09-13T13:12:29;27.30;99.90
64939;DHT22;51453;47.738;7.420;2022-09-13T13:14:53;27.20;99.90
64939;DHT22;51453;47.738;7.420;2022-09-13T13:23:03;27.00;99.90
64939;DHT22;51453;47.738;7.420;2022-09-13T13:25:37;27.00;99.90
64939;DHT22;51453;47.738;7.420;2022-09-13T13:41:54;28.00;99.90
64939;DHT22;51453;47.738;7.420;2022-09-13T13:49:53;28.30;99.90
64939;DHT22;51453;47.738;7.420;2022-09-13T13:52:34;28.80;99.90
64939;DHT22;51453;47.738;7.420;2022-09-13T14:08:31;29.20;99.90
64939;DHT22;51453;47.738;7.420;2022-09-13T14:19:45;28.90;99.90
64939;DHT22;51453;47.738;7.420;2022-09-13T14:25:11;28.50;99.90
64939;DHT22;51453;47.738;7.420;2022-09-13T14:27:35;28.50;99.90
64939;DHT22;51453;47.738;7.420;2022-09-13T14:30:18;28.40;99.90
64939;DHT22;51453;47.738;7.420;2022-09-13T14:32:46;28.60;99.90
64939;DHT22;51453;47.738;7.420;2022-09-13T14:38:27;28.90;99.90
64939;DHT22;51453;47.738;7.420;2022-09-13T14:41:01;28.90;99.90
64939;DHT22;51453;47.738;7.420;2022-09-13T14:43:28;28.80;99.90
64939;DHT22;51453;47.738;7.420;2022-09-13T14:46:20;28.60;99.90
64939;DHT22;51453;47.738;7.420;2022-09-13T14:48:50;28.30;99.90
64939;DHT22;51453;47.738;7.420;2022-09-13T14:51:28;28.30;99.90
64939;DHT22;51453;47.738;7.420;2022-09-13T14:54:00;28.30;99.90
64939;DHT22;51453;47.738;7.420;2022-09-13T14:56:57;28.40;99.90
64939;DHT22;51453;47.738;7.420;2022-09-13T14:59:30;28.50;99.90
64939;DHT22;51453;47.738;7.420;2022-09-13T15:02:03;28.50;99.90
64939;DHT22;51453;47.738;7.420;2022-09-13T15:04:29;28.40;99.90
64939;DHT22;51453;47.738;7.420;2022-09-13T15:07:07;28.40;99.90
64939;DHT22;51453;47.738;7.420;2022-09-13T15:09:33;28.30;99.90
64939;DHT22;51453;47.738;7.420;2022-09-13T15:12:02;28.20;99.90
64939;DHT22;51453;47.738;7.420;2022-09-13T15:14:30;28.20;99.90
64939;DHT22;51453;47.738;7.420;2022-09-13T15:17:10;28.30;99.90
64939;DHT22;51453;47.738;7.420;2022-09-13T15:19:42;28.40;99.90
64939;DHT22;51453;47.738;7.420;2022-09-13T15:24:57;28.70;99.90
64939;DHT22;51453;47.738;7.420;2022-09-13T15:27:42;28.80;99.90
64939;DHT22;51453;47.738;7.420;2022-09-13T15:30:28;28.80;99.90
64939;DHT22;51453;47.738;7.420;2022-09-13T15:35:38;28.70;99.90
64939;DHT22;51453;47.738;7.420;2022-09-13T15:38:28;28.60;99.90
64939;DHT22;51453;47.738;7.420;2022-09-13T15:43:36;28.40;99.90
64939;DHT22;51453;47.738;7.420;2022-09-13T15:46:02;28.20;99.90
64939;DHT22;51453;47.738;7.420;2022-09-13T15:48:31;28.10;99.90
64939;DHT22;51453;47.738;7.420;2022-09-13T15:53:34;28.10;99.90
64939;DHT22;51453;47.738;7.420;2022-09-13T15:56:01;28.10;99.90
64939;DHT22;51453;47.738;7.420;2022-09-13T15:58:27;27.90;99.90
64939;DHT22;51453;47.738;7.420;2022-09-13T16:00:53;27.80;99.90
64939;DHT22;51453;47.738;7.420;2022-09-13T16:03:19;27.70;99.90
64939;DHT22;51453;47.738;7.420;2022-09-13T16:05:44;27.70;99.90
64939;DHT22;51453;47.738;7.420;2022-09-13T16:08:11;27.60;99.90
64939;DHT22;51453;47.738;7.420;2022-09-13T16:10:36;27.40;99.90
64939;DHT22;51453;47.738;7.420;2022-09-13T16:13:03;27.10;99.90
64939;DHT22;51453;47.738;7.420;2022-09-13T16:15:28;27.00;99.90
64939;DHT22;51453;47.738;7.420;2022-09-13T16:17:54;26.80;99.90
64939;DHT22;51453;47.738;7.420;2022-09-13T16:20:20;26.70;99.90
64939;DHT22;51453;47.738;7.420;2022-09-13T16:22:46;26.60;99.90
64939;DHT22;51453;47.738;7.420;2022-09-13T16:25:12;26.50;99.90
64939;DHT22;51453;47.738;7.420;2022-09-13T16:27:39;26.40;99.90
64939;DHT22;51453;47.738;7.420;2022-09-13T16:30:06;26.20;99.90
64939;DHT22;51453;47.738;7.420;2022-09-13T16:32:32;26.10;99.90
64939;DHT22;51453;47.738;7.420;2022-09-13T16:34:58;25.90;99.90
64939;DHT22;51453;47.738;7.420;2022-09-13T16:37:24;25.80;99.90
64939;DHT22;51453;47.738;7.420;2022-09-13T16:39:49;25.80;99.90
64939;DHT22;51453;47.738;7.420;2022-09-13T16:42:15;25.70;99.90
64939;DHT22;51453;47.738;7.420;2022-09-13T16:44:42;25.70;99.90
64939;DHT22;51453;47.738;7.420;2022-09-13T16:47:08;25.50;99.90
64939;DHT22;51453;47.738;7.420;2022-09-13T16:49:34;25.50;99.90
64939;DHT22;51453;47.738;7.420;2022-09-13T16:52:00;25.50;99.90
64939;DHT22;51453;47.738;7.420;2022-09-13T16:54:27;25.50;99.90
64939;DHT22;51453;47.738;7.420;2022-09-13T16:56:54;25.50;99.90
64939;DHT22;51453;47.738;7.420;2022-09-13T16:59:20;25.60;99.90
64939;DHT22;51453;47.738;7.420;2022-09-13T17:01:46;25.50;99.90
64939;DHT22;51453;47.738;7.420;2022-09-13T17:04:12;25.30;99.90
64939;DHT22;51453;47.738;7.420;2022-09-13T17:06:37;25.20;99.90
64939;DHT22;51453;47.738;7.420;2022-09-13T17:09:05;25.10;99.90
64939;DHT22;51453;47.738;7.420;2022-09-13T17:11:34;25.00;99.90
64939;DHT22;51453;47.738;7.420;2022-09-13T17:14:01;24.90;99.90
64939;DHT22;51453;47.738;7.420;2022-09-13T17:18:59;24.70;99.90
64939;DHT22;51453;47.738;7.420;2022-09-13T17:21:27;24.60;99.90
64939;DHT22;51453;47.738;7.420;2022-09-13T17:23:53;24.50;99.90
64939;DHT22;51453;47.738;7.420;2022-09-13T17:26:19;24.30;99.90
64939;DHT22;51453;47.738;7.420;2022-09-13T17:28:45;24.20;99.90
64939;DHT22;51453;47.738;7.420;2022-09-13T17:31:12;24.10;99.90
64939;DHT22;51453;47.738;7.420;2022-09-13T17:33:38;23.90;99.90
64939;DHT22;51453;47.738;7.420;2022-09-13T17:36:07;23.80;99.90
64939;DHT22;51453;47.738;7.420;2022-09-13T17:38:37;23.60;99.90
64939;DHT22;51453;47.738;7.420;2022-09-13T17:41:05;23.50;99.90
64939;DHT22;51453;47.738;7.420;2022-09-13T17:43:32;23.40;99.90
64939;DHT22;51453;47.738;7.420;2022-09-13T17:46:06;23.20;99.90
64939;DHT22;51453;47.738;7.420;2022-09-13T17:48:32;23.20;99.90
64939;DHT22;51453;47.738;7.420;2022-09-13T17:51:06;23.10;99.90
64939;DHT22;51453;47.738;7.420;2022-09-13T17:53:40;23.00;99.90
64939;DHT22;51453;47.738;7.420;2022-09-13T17:56:07;23.00;99.90
64939;DHT22;51453;47.738;7.420;2022-09-13T17:58:34;22.90;99.90
64939;DHT22;51453;47.738;7.420;2022-09-13T18:01:04;22.80;99.90
64939;DHT22;51453;47.738;7.420;2022-09-13T18:03:30;22.70;99.90
64939;DHT22;51453;47.738;7.420;2022-09-13T18:06:16;22.60;99.90
64939;DHT22;51453;47.738;7.420;2022-09-13T18:08:41;22.40;99.90
64939;DHT22;51453;47.738;7.420;2022-09-13T18:11:13;22.30;99.90
64939;DHT22;51453;47.738;7.420;2022-09-13T18:13:41;22.20;99.90
64939;DHT22;51453;47.738;7.420;2022-09-13T18:16:16;22.20;99.90
64939;DHT22;51453;47.738;7.420;2022-09-13T18:18:41;22.10;99.90
64939;DHT22;51453;47.738;7.420;2022-09-13T18:21:10;22.10;99.90
64939;DHT22;51453;47.738;7.420;2022-09-13T18:23:39;22.10;99.90
64939;DHT22;51453;47.738;7.420;2022-09-13T18:26:08;22.10;99.90
64939;DHT22;51453;47.738;7.420;2022-09-13T18:28:34;22.10;99.90
64939;DHT22;51453;47.738;7.420;2022-09-13T18:31:02;22.10;99.90
64939;DHT22;51453;47.738;7.420;2022-09-13T18:33:32;22.10;99.90
64939;DHT22;51453;47.738;7.420;2022-09-13T18:35:58;22.10;99.90
64939;DHT22;51453;47.738;7.420;2022-09-13T18:38:25;22.10;99.90
64939;DHT22;51453;47.738;7.420;2022-09-13T18:41:29;22.20;99.90
64939;DHT22;51453;47.738;7.420;2022-09-13T18:43:54;22.20;99.90
64939;DHT22;51453;47.738;7.420;2022-09-13T18:46:23;22.20;99.90
64939;DHT22;51453;47.738;7.420;2022-09-13T18:48:52;22.30;99.90
64939;DHT22;51453;47.738;7.420;2022-09-13T18:51:22;22.40;99.90
64939;DHT22;51453;47.738;7.420;2022-09-13T18:53:48;22.40;99.90
64939;DHT22;51453;47.738;7.420;2022-09-13T18:56:16;22.40;99.90
64939;DHT22;51453;47.738;7.420;2022-09-13T18:58:43;22.30;99.90
64939;DHT22;51453;47.738;7.420;2022-09-13T19:01:11;22.20;99.90
64939;DHT22;51453;47.738;7.420;2022-09-13T19:03:38;22.10;99.90
64939;DHT22;51453;47.738;7.420;2022-09-13T19:06:15;22.00;99.90
64939;DHT22;51453;47.738;7.420;2022-09-13T19:08:41;22.00;99.90
64939;DHT22;51453;47.738;7.420;2022-09-13T19:11:08;21.90;99.90
64939;DHT22;51453;47.738;7.420;2022-09-13T19:13:34;21.80;99.90
64939;DHT22;51453;47.738;7.420;2022-09-13T19:16:03;21.70;99.90
64939;DHT22;51453;47.738;7.420;2022-09-13T19:18:29;21.70;99.90
64939;DHT22;51453;47.738;7.420;2022-09-13T19:21:04;21.70;99.90
64939;DHT22;51453;47.738;7.420;2022-09-13T19:23:31;21.70;99.90
64939;DHT22;51453;47.738;7.420;2022-09-13T19:26:05;21.70;99.90
64939;DHT22;51453;47.738;7.420;2022-09-13T19:28:31;21.70;99.90
64939;DHT22;51453;47.738;7.420;2022-09-13T19:31:05;21.60;99.90
64939;DHT22;51453;47.738;7.420;2022-09-13T19:33:32;21.60;99.90
64939;DHT22;51453;47.738;7.420;2022-09-13T19:36:06;21.50;99.90
64939;DHT22;51453;47.738;7.420;2022-09-13T19:38:33;21.60;99.90